Time;durP1;ratioP1;P1;durP2;ratioP2;P2;SDS_P1;SDS_P2;PMS_P1;PMS_P2;Temp;Humidity;BMP_temperature;BMP_pressure;BME280_temperature;BME280_humidity;BME280_pressure;Samples;Min_cycle;Max_cycle;Signal;HPM_P1;HPM_P2
2021/06/17 00:03:39;;;;;;;7.63;5.57;;;;;;;;;;5075639;28;20404;-78
2021/06/17 00:06:05;;;;;;;6.70;6.17;;;;;;;;;;5075779;28;20976;-79
2021/06/17 00:08:32;;;;;;;9.73;6.60;;;;;;;;;;5075847;28;20468;-78
2021/06/17 00:11:01;;;;;;;9.10;6.87;;;;;;;;;;5075899;28;20417;-79
2021/06/17 00:13:30;;;;;;;7.43;6.47;;;;;;;;;;5076242;28;20796;-79
2021/06/17 00:15:57;;;;;;;7.47;6.37;;;;;;;;;;5075965;28;20521;-79
2021/06/17 00:18:26;;;;;;;14.90;7.37;;;;;;;;;;5075825;28;20406;-78
2021/06/17 00:20:53;;;;;;;12.10;7.83;;;;;;;;;;5074688;28;20425;-80
2021/06/17 00:23:19;;;;;;;7.70;6.90;;;;;;;;;;5076000;28;20615;-78
2021/06/17 00:25:45;;;;;;;8.20;6.50;;;;;;;;;;5075758;28;20410;-79
2021/06/17 00:28:11;;;;;;;9.90;6.40;;;;;;;;;;5075221;28;20458;-78
2021/06/17 00:33:41;;;;;;;6.50;5.80;;;;;;;;;;5075572;28;20409;-79
2021/06/17 00:36:07;;;;;;;15.10;6.40;;;;;;;;;;5074166;28;20457;-78
2021/06/17 00:38:33;;;;;;;6.83;5.80;;;;;;;;;;5075551;28;20451;-80
2021/06/17 00:40:59;;;;;;;7.20;5.67;;;;;;;;;;5075697;28;20421;-78
2021/06/17 00:43:26;;;;;;;9.43;5.67;;;;;;;;;;5075781;28;20501;-79
2021/06/17 00:45:53;;;;;;;6.97;6.27;;;;;;;;;;5075403;28;20413;-79
2021/06/17 00:48:19;;;;;;;7.40;5.37;;;;;;;;;;5074188;28;20779;-80
2021/06/17 00:50:50;;;;;;;7.40;6.20;;;;;;;;;;5074386;28;20403;-78
2021/06/17 00:53:19;;;;;;;6.90;5.20;;;;;;;;;;5074276;28;20426;-79
2021/06/17 00:55:46;;;;;;;9.10;5.63;;;;;;;;;;5074483;28;20501;-79
2021/06/17 00:58:15;;;;;;;6.63;5.50;;;;;;;;;;5074357;28;20467;-78
2021/06/17 01:03:51;;;;;;;8.57;6.03;;;;;;;;;;5073811;28;20820;-78
2021/06/17 01:06:17;;;;;;;5.80;5.13;;;;;;;;;;5073869;28;20403;-79
2021/06/17 01:08:58;;;;;;;5.53;4.97;;;;;;;;;;5072268;28;20516;-78
2021/06/17 01:11:29;;;;;;;6.00;5.10;;;;;;;;;;5073991;28;20421;-80
2021/06/17 01:14:00;;;;;;;6.50;5.33;;;;;;;;;;5074040;28;20422;-76
2021/06/17 01:16:34;;;;;;;6.37;5.70;;;;;;;;;;5073540;28;20493;-79
2021/06/17 01:19:09;;;;;;;9.60;6.50;;;;;;;;;;5076762;28;20750;-80
2021/06/17 01:21:37;;;;;;;8.97;5.70;;;;;;;;;;5074130;28;20422;-78
2021/06/17 01:24:22;;;;;;;5.53;5.13;;;;;;;;;;5073707;28;20517;-77
2021/06/17 01:27:07;;;;;;;6.13;5.50;;;;;;;;;;5073675;28;20421;-76
2021/06/17 01:29:34;;;;;;;11.70;5.83;;;;;;;;;;5073157;28;20449;-78
2021/06/17 01:32:01;;;;;;;10.03;5.50;;;;;;;;;;5073498;28;20460;-79
2021/06/17 01:34:30;;;;;;;6.17;5.57;;;;;;;;;;5073306;28;20463;-78
2021/06/17 01:37:03;;;;;;;7.97;5.67;;;;;;;;;;5073615;28;20413;-79
2021/06/17 01:39:30;;;;;;;7.67;6.53;;;;;;;;;;5073517;28;20425;-78
2021/06/17 01:41:59;;;;;;;6.10;5.60;;;;;;;;;;5073473;28;20422;-80
2021/06/17 01:44:26;;;;;;;6.57;5.50;;;;;;;;;;5071988;28;20429;-81
2021/06/17 01:46:52;;;;;;;6.73;5.40;;;;;;;;;;5072908;28;20422;-79
2021/06/17 01:49:19;;;;;;;6.27;5.67;;;;;;;;;;5073337;28;20487;-77
2021/06/17 01:51:46;;;;;;;8.00;6.20;;;;;;;;;;5072508;28;20562;-78
2021/06/17 01:54:20;;;;;;;8.23;5.63;;;;;;;;;;5072921;28;20426;-79
2021/06/17 01:56:47;;;;;;;5.13;4.73;;;;;;;;;;5073166;28;20416;-79
2021/06/17 01:59:13;;;;;;;5.10;4.43;;;;;;;;;;5073123;28;20501;-79
2021/06/17 02:01:39;;;;;;;5.20;4.73;;;;;;;;;;5072988;28;20452;-79
2021/06/17 02:04:06;;;;;;;6.73;6.00;;;;;;;;;;5071731;28;20908;-78
2021/06/17 02:06:33;;;;;;;9.43;4.70;;;;;;;;;;5072975;28;20414;-80
2021/06/17 02:08:59;;;;;;;5.40;4.90;;;;;;;;;;5073447;28;20465;-78
2021/06/17 02:11:26;;;;;;;5.50;4.83;;;;;;;;;;5071237;28;20422;-78
2021/06/17 02:13:52;;;;;;;6.83;4.70;;;;;;;;;;5073002;28;20430;-80
2021/06/17 02:16:19;;;;;;;6.10;5.17;;;;;;;;;;5072856;28;20792;-77
2021/06/17 02:18:49;;;;;;;8.87;5.27;;;;;;;;;;5071350;28;21029;-80
2021/06/17 02:21:16;;;;;;;4.43;4.13;;;;;;;;;;5072717;28;20402;-79
2021/06/17 02:23:44;;;;;;;9.90;5.07;;;;;;;;;;5072881;28;20424;-78
2021/06/17 02:26:10;;;;;;;5.40;4.80;;;;;;;;;;5072629;28;20402;-79
2021/06/17 02:28:41;;;;;;;5.03;4.60;;;;;;;;;;5072727;28;20873;-79
2021/06/17 02:34:11;;;;;;;5.43;4.60;;;;;;;;;;5072222;28;20475;-78
2021/06/17 02:36:38;;;;;;;5.13;4.70;;;;;;;;;;5072566;28;20963;-77
2021/06/17 02:39:05;;;;;;;5.40;4.87;;;;;;;;;;5072616;28;20406;-78
2021/06/17 02:41:32;;;;;;;5.00;4.50;;;;;;;;;;5073003;28;20531;-79
2021/06/17 02:43:59;;;;;;;4.63;4.23;;;;;;;;;;5074185;28;20441;-79
2021/06/17 02:46:25;;;;;;;4.97;4.47;;;;;;;;;;5072036;28;20925;-76
2021/06/17 02:48:52;;;;;;;5.37;4.87;;;;;;;;;;5071343;28;20560;-79
2021/06/17 02:51:18;;;;;;;5.67;5.07;;;;;;;;;;5072576;28;20771;-78
2021/06/17 02:53:44;;;;;;;5.07;4.67;;;;;;;;;;5071961;28;20402;-78
2021/06/17 02:56:12;;;;;;;6.33;5.13;;;;;;;;;;5072596;28;20417;-79
2021/06/17 02:58:46;;;;;;;4.90;4.50;;;;;;;;;;5071869;28;20494;-80
2021/06/17 03:04:23;;;;;;;4.47;4.17;;;;;;;;;;5072116;28;20815;-78
2021/06/17 03:06:50;;;;;;;5.93;4.63;;;;;;;;;;5072214;28;20406;-79
2021/06/17 03:09:19;;;;;;;6.77;4.20;;;;;;;;;;5072435;28;20433;-77
2021/06/17 03:11:47;;;;;;;4.50;4.10;;;;;;;;;;5072321;28;20926;-79
2021/06/17 03:14:14;;;;;;;4.10;3.50;;;;;;;;;;5070382;28;20920;-77
2021/06/17 03:16:41;;;;;;;5.20;3.73;;;;;;;;;;5072508;28;20512;-79
2021/06/17 03:19:08;;;;;;;4.47;3.93;;;;;;;;;;5072036;28;20414;-79
2021/06/17 03:21:38;;;;;;;4.47;4.07;;;;;;;;;;5071979;28;20418;-79
2021/06/17 03:24:06;;;;;;;4.27;3.40;;;;;;;;;;5072435;28;20430;-78
2021/06/17 03:26:33;;;;;;;4.33;3.93;;;;;;;;;;5072532;28;20900;-79
2021/06/17 03:28:59;;;;;;;3.70;3.40;;;;;;;;;;5071798;28;20473;-79
2021/06/17 03:34:30;;;;;;;3.93;3.60;;;;;;;;;;5071758;28;20576;-80
2021/06/17 03:36:57;;;;;;;5.80;3.20;;;;;;;;;;5072084;28;20418;-78
2021/06/17 03:39:24;;;;;;;4.50;4.10;;;;;;;;;;5072110;28;20495;-79
2021/06/17 03:41:50;;;;;;;4.50;4.00;;;;;;;;;;5070425;28;20422;-77
2021/06/17 03:44:16;;;;;;;3.50;3.20;;;;;;;;;;5071812;28;20409;-79
2021/06/17 03:46:43;;;;;;;4.00;3.43;;;;;;;;;;5071610;28;20422;-79
2021/06/17 03:49:10;;;;;;;4.67;4.27;;;;;;;;;;5072106;28;20831;-77
2021/06/17 03:51:37;;;;;;;6.17;3.80;;;;;;;;;;5071932;28;20410;-78
2021/06/17 03:54:03;;;;;;;5.00;3.60;;;;;;;;;;5071679;28;20516;-76
2021/06/17 03:56:30;;;;;;;3.90;3.33;;;;;;;;;;5071203;28;20489;-77
2021/06/17 03:58:58;;;;;;;7.20;4.47;;;;;;;;;;5071560;28;20444;-78
2021/06/17 04:04:28;;;;;;;4.07;3.57;;;;;;;;;;5071444;28;20962;-78
2021/06/17 04:06:59;;;;;;;4.90;3.90;;;;;;;;;;5071470;28;20403;-78
2021/06/17 04:09:30;;;;;;;4.17;3.87;;;;;;;;;;5071881;28;20410;-81
2021/06/17 04:11:57;;;;;;;5.57;3.70;;;;;;;;;;5075260;28;20418;-78
2021/06/17 04:20:15;;;;;;;4.47;4.07;;;;;;;;;;5075184;28;20511;-79
2021/06/17 04:22:46;;;;;;;6.10;4.57;;;;;;;;;;5075096;28;20414;-74
2021/06/17 04:25:13;;;;;;;5.33;4.47;;;;;;;;;;5074929;28;20418;-78
2021/06/17 04:27:40;;;;;;;5.13;4.30;;;;;;;;;;5073603;28;20546;-77
2021/06/17 04:30:07;;;;;;;6.93;4.40;;;;;;;;;;5074529;28;20743;-76
2021/06/17 04:32:33;;;;;;;5.17;4.13;;;;;;;;;;5074617;28;20414;-78
2021/06/17 04:35:00;;;;;;;4.73;3.73;;;;;;;;;;5075222;28;20562;-74
2021/06/17 04:37:27;;;;;;;5.13;4.03;;;;;;;;;;5074971;28;20410;-74
2021/06/17 04:40:01;;;;;;;4.47;3.90;;;;;;;;;;5075384;28;20441;-74
2021/06/17 04:42:27;;;;;;;4.10;3.80;;;;;;;;;;5075677;28;20418;-76
2021/06/17 04:44:54;;;;;;;4.37;3.97;;;;;;;;;;5075797;28;20497;-78
2021/06/17 04:47:20;;;;;;;4.40;4.00;;;;;;;;;;5075483;28;20499;-78
2021/06/17 04:49:48;;;;;;;3.83;3.20;;;;;;;;;;5075358;28;20423;-77
2021/06/17 04:52:29;;;;;;;4.80;3.70;;;;;;;;;;5074087;28;20430;-79
2021/06/17 04:54:55;;;;;;;4.30;3.90;;;;;;;;;;5075842;28;20469;-77
2021/06/17 04:57:21;;;;;;;4.20;3.80;;;;;;;;;;5076689;28;20422;-78
2021/06/17 04:59:47;;;;;;;4.50;4.10;;;;;;;;;;5079251;28;20414;-76
2021/06/17 05:02:13;;;;;;;3.63;3.33;;;;;;;;;;5078245;28;20485;-77
2021/06/17 05:04:42;;;;;;;4.40;4.00;;;;;;;;;;5077444;28;20426;-78
2021/06/17 05:12:19;;;;;;;5.13;4.10;;;;;;;;;;5075769;28;20425;-77
2021/06/17 05:14:45;;;;;;;4.13;3.80;;;;;;;;;;5075896;28;20406;-78
2021/06/17 05:17:11;;;;;;;4.10;3.80;;;;;;;;;;5076012;28;20590;-77
2021/06/17 05:19:37;;;;;;;4.10;3.80;;;;;;;;;;5076134;28;20406;-78
2021/06/17 05:22:03;;;;;;;4.53;3.77;;;;;;;;;;5076865;28;20474;-78
2021/06/17 05:24:29;;;;;;;5.90;3.57;;;;;;;;;;5077023;28;20432;-77
2021/06/17 05:26:56;;;;;;;5.47;3.60;;;;;;;;;;5077170;28;20839;-79
2021/06/17 05:29:25;;;;;;;3.80;3.50;;;;;;;;;;5075333;28;20410;-79
2021/06/17 05:34:54;;;;;;;4.30;4.00;;;;;;;;;;5073662;28;20468;-77
2021/06/17 05:37:20;;;;;;;4.30;3.90;;;;;;;;;;5074251;28;20471;-76
2021/06/17 05:39:46;;;;;;;7.63;6.67;;;;;;;;;;5074649;28;20883;-79
2021/06/17 05:42:12;;;;;;;3.83;3.20;;;;;;;;;;5075483;28;20499;-79
2021/06/17 05:44:38;;;;;;;6.97;4.50;;;;;;;;;;5075425;28;20406;-79
2021/06/17 05:50:08;;;;;;;5.80;4.00;;;;;;;;;;5078244;28;20417;-79
2021/06/17 05:52:34;;;;;;;4.40;4.00;;;;;;;;;;5077666;28;20410;-78
2021/06/17 05:55:00;;;;;;;5.70;4.50;;;;;;;;;;5077431;28;20414;-80
2021/06/17 05:57:26;;;;;;;7.37;3.43;;;;;;;;;;5077805;28;20432;-79
2021/06/17 05:59:52;;;;;;;4.73;3.70;;;;;;;;;;5077143;28;20893;-80
2021/06/17 06:05:22;;;;;;;6.20;3.90;;;;;;;;;;5075060;28;20424;-82
2021/06/17 06:07:55;;;;;;;4.77;3.47;;;;;;;;;;5073822;28;20449;-82
2021/06/17 06:10:21;;;;;;;4.50;4.00;;;;;;;;;;5074375;28;20509;-81
2021/06/17 06:12:47;;;;;;;8.67;4.27;;;;;;;;;;5074953;28;20441;-82
2021/06/17 06:15:13;;;;;;;6.80;4.10;;;;;;;;;;5074186;28;20418;-80
2021/06/17 06:17:42;;;;;;;3.90;3.50;;;;;;;;;;5073791;28;20459;-80
2021/06/17 06:20:08;;;;;;;5.73;3.90;;;;;;;;;;5073037;28;20631;-80
2021/06/17 06:22:34;;;;;;;6.87;3.80;;;;;;;;;;5072659;28;20417;-80
2021/06/17 06:25:00;;;;;;;3.83;3.10;;;;;;;;;;5072595;28;20450;-81
2021/06/17 06:27:26;;;;;;;6.13;4.37;;;;;;;;;;5074341;28;20512;-82
2021/06/17 06:29:52;;;;;;;5.30;4.53;;;;;;;;;;5073934;28;20812;-81
2021/06/17 06:35:22;;;;;;;7.00;4.70;;;;;;;;;;5072165;28;20574;-82
2021/06/17 06:37:49;;;;;;;5.50;4.63;;;;;;;;;;5073237;28;20414;-79
2021/06/17 06:40:15;;;;;;;6.13;5.57;;;;;;;;;;5071905;28;20465;-80
2021/06/17 06:42:42;;;;;;;5.73;4.20;;;;;;;;;;5072199;28;20410;-79
2021/06/17 06:45:08;;;;;;;5.53;3.87;;;;;;;;;;5072147;28;20475;-81
2021/06/17 06:50:38;;;;;;;4.30;3.90;;;;;;;;;;5072144;28;20464;-79
2021/06/17 06:53:04;;;;;;;7.90;4.17;;;;;;;;;;5071358;28;20448;-78
2021/06/17 06:55:33;;;;;;;4.03;3.47;;;;;;;;;;5068994;28;20398;-80
2021/06/17 06:57:59;;;;;;;6.20;3.77;;;;;;;;;;5070901;28;20779;-78
2021/06/17 07:00:25;;;;;;;4.00;3.63;;;;;;;;;;5070275;28;20528;-80
2021/06/17 07:02:51;;;;;;;4.40;3.63;;;;;;;;;;5071650;28;20445;-79
2021/06/17 07:05:18;;;;;;;3.93;3.53;;;;;;;;;;5071380;28;20402;-80
2021/06/17 07:07:44;;;;;;;3.43;3.23;;;;;;;;;;5070549;28;20864;-73
2021/06/17 07:10:11;;;;;;;3.63;3.37;;;;;;;;;;5069125;28;20430;-74
2021/06/17 07:12:37;;;;;;;3.17;2.87;;;;;;;;;;5069310;28;20445;-72
2021/06/17 07:15:03;;;;;;;7.10;3.37;;;;;;;;;;5070734;28;20889;-74
2021/06/17 07:20:33;;;;;;;3.30;2.90;;;;;;;;;;5070875;28;20960;-72
2021/06/17 07:22:59;;;;;;;5.93;3.00;;;;;;;;;;5069530;28;20869;-75
2021/06/17 07:25:26;;;;;;;3.93;3.63;;;;;;;;;;5070864;28;20480;-73
2021/06/17 07:27:52;;;;;;;4.07;3.63;;;;;;;;;;5069657;28;20522;-75
2021/06/17 07:30:18;;;;;;;3.20;3.00;;;;;;;;;;5070076;28;20398;-75
2021/06/17 07:35:48;;;;;;;3.30;3.00;;;;;;;;;;5070749;28;20491;-72
2021/06/17 07:38:14;;;;;;;4.37;3.07;;;;;;;;;;5070942;28;20445;-76
2021/06/17 07:40:42;;;;;;;2.97;2.77;;;;;;;;;;5070452;28;20966;-74
2021/06/17 07:43:08;;;;;;;4.33;2.80;;;;;;;;;;5069475;28;20414;-73
2021/06/17 07:45:35;;;;;;;4.97;3.40;;;;;;;;;;5072305;28;20832;-74
2021/06/17 07:48:01;;;;;;;3.20;2.90;;;;;;;;;;5074187;28;20613;-72
2021/06/17 07:50:27;;;;;;;3.30;3.10;;;;;;;;;;5073484;28;20902;-71
2021/06/17 07:52:53;;;;;;;4.07;3.03;;;;;;;;;;5073679;28;20523;-72
2021/06/17 07:55:19;;;;;;;3.37;3.07;;;;;;;;;;5074251;28;20552;-71
2021/06/17 07:57:45;;;;;;;3.87;3.60;;;;;;;;;;5074414;28;20517;-72
2021/06/17 08:00:11;;;;;;;6.17;3.40;;;;;;;;;;5072838;28;20853;-72
2021/06/17 08:05:41;;;;;;;4.70;3.40;;;;;;;;;;5074183;28;20432;-72
2021/06/17 08:08:08;;;;;;;3.57;3.27;;;;;;;;;;5074257;28;20461;-73
2021/06/17 08:10:34;;;;;;;3.40;3.20;;;;;;;;;;5074537;28;20413;-72
2021/06/17 08:13:00;;;;;;;6.13;3.50;;;;;;;;;;5074319;28;20538;-72
2021/06/17 08:15:26;;;;;;;5.23;3.83;;;;;;;;;;5074269;28;20493;-72
2021/06/17 08:20:57;;;;;;;6.20;3.70;;;;;;;;;;5073957;28;20926;-71
2021/06/17 08:23:25;;;;;;;6.77;4.00;;;;;;;;;;5073807;28;20414;-72
2021/06/17 08:25:52;;;;;;;4.10;3.67;;;;;;;;;;5074147;28;20490;-72
2021/06/17 08:28:18;;;;;;;4.10;3.30;;;;;;;;;;5073028;28;20470;-72
2021/06/17 08:33:40;;;;;;;4.83;4.33;;;;;;;;;;5074782;28;20451;-72
2021/06/17 08:36:13;;;;;;;8.17;3.63;;;;;;;;;;5074912;28;20647;-77
2021/06/17 08:38:50;;;;;;;5.70;3.77;;;;;;;;;;5075207;28;20410;-75
2021/06/17 08:41:25;;;;;;;4.60;4.30;;;;;;;;;;5074662;28;20421;-77
2021/06/17 08:43:54;;;;;;;3.77;3.43;;;;;;;;;;5074405;28;20732;-71
2021/06/17 08:49:27;;;;;;;5.00;3.83;;;;;;;;;;5074332;28;20436;-76
2021/06/17 08:52:07;;;;;;;4.23;3.83;;;;;;;;;;5073301;28;20426;-72
2021/06/17 08:54:36;;;;;;;7.10;3.80;;;;;;;;;;5074284;28;20880;-74
2021/06/17 08:57:02;;;;;;;8.17;3.73;;;;;;;;;;5071771;28;21014;-74
2021/06/17 08:59:45;;;;;;;4.40;4.10;;;;;;;;;;5072140;28;20441;-73
2021/06/17 09:05:15;;;;;;;3.70;3.40;;;;;;;;;;5072660;28;20505;-73
2021/06/17 09:07:42;;;;;;;4.93;4.10;;;;;;;;;;5072390;28;20973;-72
2021/06/17 09:10:09;;;;;;;4.70;4.20;;;;;;;;;;5072568;28;20410;-74
2021/06/17 09:13:07;;;;;;;8.00;3.90;;;;;;;;;;5072606;28;20417;-72
2021/06/17 09:15:48;;;;;;;4.60;3.90;;;;;;;;;;5082488;28;20442;-72
2021/06/17 09:21:18;;;;;;;4.30;3.87;;;;;;;;;;5072210;28;20827;-71
2021/06/17 09:23:45;;;;;;;3.47;3.00;;;;;;;;;;5071439;28;20456;-73
2021/06/17 09:26:17;;;;;;;5.60;3.87;;;;;;;;;;5070462;28;20514;-72
2021/06/17 09:28:51;;;;;;;4.43;3.50;;;;;;;;;;5071860;28;20469;-75
2021/06/17 09:31:18;;;;;;;3.87;3.57;;;;;;;;;;5071721;28;20420;-73
2021/06/17 09:33:45;;;;;;;4.17;3.53;;;;;;;;;;5071367;28;20461;-72
2021/06/17 09:36:11;;;;;;;5.77;4.50;;;;;;;;;;5071889;28;20792;-73
2021/06/17 09:38:48;;;;;;;5.10;3.37;;;;;;;;;;5071746;28;20410;-73
2021/06/17 09:41:33;;;;;;;3.80;3.30;;;;;;;;;;5070394;28;20520;-72
2021/06/17 09:43:59;;;;;;;5.90;3.50;;;;;;;;;;5071235;28;20410;-72
2021/06/17 09:46:25;;;;;;;4.37;3.37;;;;;;;;;;5071658;28;21003;-74
2021/06/17 09:48:52;;;;;;;8.07;3.93;;;;;;;;;;5071387;28;20480;-73
2021/06/17 09:51:21;;;;;;;3.87;2.90;;;;;;;;;;5071820;28;20423;-73
2021/06/17 09:53:47;;;;;;;3.67;3.37;;;;;;;;;;5070304;28;20491;-73
2021/06/17 09:56:30;;;;;;;4.43;4.00;;;;;;;;;;5070312;28;20426;-75
2021/06/17 09:58:56;;;;;;;3.83;3.60;;;;;;;;;;5071560;28;20803;-74
2021/06/17 10:07:31;;;;;;;4.03;3.50;;;;;;;;;;5071244;28;20453;-73
2021/06/17 10:10:00;;;;;;;3.80;3.50;;;;;;;;;;5070326;28;20466;-75
2021/06/17 10:12:27;;;;;;;3.53;3.23;;;;;;;;;;5070207;28;20433;-73
2021/06/17 10:14:53;;;;;;;4.03;3.63;;;;;;;;;;5069534;28;20533;-74
2021/06/17 10:17:19;;;;;;;4.50;4.13;;;;;;;;;;5053346;28;20769;-73
2021/06/17 10:19:47;;;;;;;6.30;4.30;;;;;;;;;;5069838;28;20487;-73
2021/06/17 10:22:13;;;;;;;7.10;4.17;;;;;;;;;;5071759;28;20816;-74
2021/06/17 10:24:39;;;;;;;4.23;3.93;;;;;;;;;;5070563;28;20987;-72
2021/06/17 10:27:15;;;;;;;5.17;4.50;;;;;;;;;;5071134;28;20476;-72
2021/06/17 10:29:44;;;;;;;4.33;4.03;;;;;;;;;;5071362;28;20448;-73
2021/06/17 10:32:17;;;;;;;5.20;4.33;;;;;;;;;;5071543;28;20416;-73
2021/06/17 10:34:46;;;;;;;5.10;4.50;;;;;;;;;;5071739;28;20745;-73
2021/06/17 10:37:12;;;;;;;7.70;4.90;;;;;;;;;;5071442;28;20446;-74
2021/06/17 10:40:06;;;;;;;7.63;5.20;;;;;;;;;;5071447;28;20414;-73
2021/06/17 10:42:32;;;;;;;5.30;4.57;;;;;;;;;;5070566;28;20413;-72
2021/06/17 10:45:02;;;;;;;6.13;4.53;;;;;;;;;;5071025;28;20420;-73
2021/06/17 10:47:42;;;;;;;4.63;4.23;;;;;;;;;;5070745;28;20484;-74
2021/06/17 10:50:08;;;;;;;6.50;4.70;;;;;;;;;;5069352;28;20457;-74
2021/06/17 10:52:34;;;;;;;5.80;4.30;;;;;;;;;;5070758;28;20501;-73
2021/06/17 10:55:01;;;;;;;5.90;4.23;;;;;;;;;;5071083;28;20811;-73
2021/06/17 10:57:52;;;;;;;5.60;5.07;;;;;;;;;;5070753;28;20449;-73
2021/06/17 11:00:28;;;;;;;4.20;3.90;;;;;;;;;;5070889;28;20766;-76
2021/06/17 11:03:06;;;;;;;8.73;5.30;;;;;;;;;;5071343;28;20413;-72
2021/06/17 11:05:33;;;;;;;6.20;5.17;;;;;;;;;;5071695;28;20891;-72
2021/06/17 11:08:15;;;;;;;6.10;4.90;;;;;;;;;;5071866;28;20410;-72
2021/06/17 11:10:44;;;;;;;5.60;4.60;;;;;;;;;;5071610;28;20489;-73
2021/06/17 11:13:25;;;;;;;5.33;4.93;;;;;;;;;;5071800;28;20588;-72
2021/06/17 11:15:51;;;;;;;5.37;4.97;;;;;;;;;;5071731;28;20406;-73
2021/06/17 11:18:38;;;;;;;5.80;5.30;;;;;;;;;;5071159;28;20478;-73
2021/06/17 11:21:04;;;;;;;5.80;5.13;;;;;;;;;;5073256;28;20433;-74
2021/06/17 11:23:31;;;;;;;10.43;6.03;;;;;;;;;;5075862;28;20414;-74
2021/06/17 11:25:59;;;;;;;5.10;4.60;;;;;;;;;;5075902;28;20410;-73
2021/06/17 11:28:46;;;;;;;6.00;5.13;;;;;;;;;;5075841;28;20827;-74
2021/06/17 11:31:12;;;;;;;5.80;5.07;;;;;;;;;;5074380;28;20425;-74
2021/06/17 11:33:44;;;;;;;5.40;4.70;;;;;;;;;;5074393;28;20416;-72
2021/06/17 11:36:12;;;;;;;5.87;4.60;;;;;;;;;;5074592;28;20473;-72
2021/06/17 11:38:39;;;;;;;5.13;4.73;;;;;;;;;;5073952;28;20977;-73
2021/06/17 11:41:11;;;;;;;7.63;4.30;;;;;;;;;;5074144;28;20493;-72
2021/06/17 11:43:37;;;;;;;5.27;4.77;;;;;;;;;;5072974;28;20414;-73
2021/06/17 11:46:03;;;;;;;6.67;4.83;;;;;;;;;;5073213;28;20481;-73
2021/06/17 11:48:29;;;;;;;7.43;5.07;;;;;;;;;;5073480;28;20896;-72
2021/06/17 11:50:56;;;;;;;5.13;4.40;;;;;;;;;;5072237;28;20476;-73
2021/06/17 11:53:25;;;;;;;6.00;5.60;;;;;;;;;;5074249;28;20425;-81
2021/06/17 11:55:53;;;;;;;6.67;5.20;;;;;;;;;;5074624;28;20402;-74
2021/06/17 11:58:19;;;;;;;4.80;4.40;;;;;;;;;;5074072;28;20461;-73
2021/06/17 12:00:46;;;;;;;5.33;4.87;;;;;;;;;;5073860;28;20449;-74
2021/06/17 12:03:16;;;;;;;4.30;3.90;;;;;;;;;;5073828;28;20410;-73
2021/06/17 12:05:42;;;;;;;5.97;5.37;;;;;;;;;;5073535;28;20524;-73
2021/06/17 12:08:10;;;;;;;4.83;4.43;;;;;;;;;;5072378;28;20473;-73
2021/06/17 12:10:37;;;;;;;7.63;4.83;;;;;;;;;;5072049;28;20428;-74
2021/06/17 12:13:04;;;;;;;5.53;5.00;;;;;;;;;;5072132;28;20914;-74
2021/06/17 12:15:30;;;;;;;7.40;5.27;;;;;;;;;;5071932;28;20927;-73
2021/06/17 12:17:59;;;;;;;5.57;4.90;;;;;;;;;;5072796;28;20449;-72
2021/06/17 12:20:32;;;;;;;8.90;5.13;;;;;;;;;;5072570;28;20435;-74
2021/06/17 12:23:01;;;;;;;8.33;4.47;;;;;;;;;;5071025;28;20417;-73
2021/06/17 12:25:28;;;;;;;5.27;4.37;;;;;;;;;;5073564;28;20544;-74
2021/06/17 12:27:55;;;;;;;4.77;4.47;;;;;;;;;;5073348;28;20856;-74
2021/06/17 12:30:28;;;;;;;5.17;4.67;;;;;;;;;;5073156;28;20872;-74
2021/06/17 12:32:55;;;;;;;5.83;5.33;;;;;;;;;;5073311;28;20590;-74
2021/06/17 12:35:23;;;;;;;5.73;4.83;;;;;;;;;;5073297;28;20826;-72
2021/06/17 12:37:57;;;;;;;5.60;4.90;;;;;;;;;;5073419;28;20470;-73
2021/06/17 12:40:27;;;;;;;4.60;4.20;;;;;;;;;;5073150;28;20536;-73
2021/06/17 12:43:08;;;;;;;6.80;5.10;;;;;;;;;;5073074;28;20433;-74
2021/06/17 12:45:35;;;;;;;7.27;4.60;;;;;;;;;;5073230;28;20422;-74
2021/06/17 12:48:08;;;;;;;5.53;4.90;;;;;;;;;;5073289;28;20426;-73
2021/06/17 12:53:18;;;;;;;5.27;4.80;;;;;;;;;;5073367;28;20540;-74
2021/06/17 12:55:47;;;;;;;5.60;5.10;;;;;;;;;;5072980;28;20467;-73
2021/06/17 12:58:15;;;;;;;4.47;4.10;;;;;;;;;;5073144;28;20505;-73
2021/06/17 13:00:54;;;;;;;4.63;4.23;;;;;;;;;;5072793;28;20421;-72
2021/06/17 13:03:29;;;;;;;6.00;4.37;;;;;;;;;;5071398;28;20437;-74
2021/06/17 13:05:56;;;;;;;4.60;3.97;;;;;;;;;;5072750;28;20519;-74
2021/06/17 13:08:25;;;;;;;4.80;4.30;;;;;;;;;;5072730;28;20421;-74
2021/06/17 13:10:52;;;;;;;6.57;4.80;;;;;;;;;;5072460;28;20767;-74
2021/06/17 13:13:19;;;;;;;5.70;5.20;;;;;;;;;;5072419;28;20433;-73
2021/06/17 13:15:46;;;;;;;4.33;4.00;;;;;;;;;;5072952;28;20476;-73
2021/06/17 13:18:12;;;;;;;6.90;4.33;;;;;;;;;;5072571;28;20470;-73
2021/06/17 13:20:41;;;;;;;4.43;4.03;;;;;;;;;;5072325;28;20451;-74
2021/06/17 13:23:12;;;;;;;6.97;4.50;;;;;;;;;;5070734;28;20458;-73
2021/06/17 13:25:38;;;;;;;7.27;4.60;;;;;;;;;;5071945;28;20407;-73
2021/06/17 13:28:06;;;;;;;4.67;4.33;;;;;;;;;;5072153;28;20411;-72
2021/06/17 13:30:35;;;;;;;8.30;5.33;;;;;;;;;;5072473;28;20825;-74
2021/06/17 13:33:04;;;;;;;6.10;4.57;;;;;;;;;;5072274;28;20523;-73
2021/06/17 13:35:31;;;;;;;6.53;4.90;;;;;;;;;;5072042;28;20530;-74
2021/06/17 13:37:57;;;;;;;7.70;4.60;;;;;;;;;;5070687;28;20550;-74
2021/06/17 13:40:24;;;;;;;6.70;4.10;;;;;;;;;;5071915;28;20410;-73
2021/06/17 13:42:58;;;;;;;4.90;4.40;;;;;;;;;;5069890;28;20434;-74
2021/06/17 13:45:24;;;;;;;6.83;4.10;;;;;;;;;;5070440;28;20513;-75
2021/06/17 13:47:51;;;;;;;5.60;3.80;;;;;;;;;;5071554;28;20422;-73
2021/06/17 13:50:17;;;;;;;4.93;4.53;;;;;;;;;;5070226;28;20475;-74
2021/06/17 13:52:43;;;;;;;5.27;4.83;;;;;;;;;;5071916;28;20770;-73
2021/06/17 13:55:14;;;;;;;6.10;4.37;;;;;;;;;;5071678;28;20413;-74
2021/06/17 13:57:42;;;;;;;4.20;3.90;;;;;;;;;;5071722;28;20477;-72
2021/06/17 14:00:12;;;;;;;5.00;4.60;;;;;;;;;;5071979;28;20833;-75
2021/06/17 14:02:39;;;;;;;4.03;3.73;;;;;;;;;;5071886;28;20416;-73
2021/06/17 14:08:11;;;;;;;5.23;4.73;;;;;;;;;;5071590;28;20455;-73
2021/06/17 14:10:38;;;;;;;7.13;4.57;;;;;;;;;;5071719;28;20982;-73
2021/06/17 14:13:05;;;;;;;7.93;3.87;;;;;;;;;;5071319;28;20516;-73
2021/06/17 14:15:32;;;;;;;4.93;4.33;;;;;;;;;;5071616;28;20406;-74
2021/06/17 14:18:00;;;;;;;4.50;4.10;;;;;;;;;;5071662;28;20476;-73
2021/06/17 14:20:26;;;;;;;4.90;4.40;;;;;;;;;;5071226;28;20411;-74
2021/06/17 14:22:53;;;;;;;5.23;4.60;;;;;;;;;;5070023;28;20420;-73
2021/06/17 14:25:19;;;;;;;3.80;3.33;;;;;;;;;;5069932;28;20451;-73
2021/06/17 14:27:45;;;;;;;5.00;4.50;;;;;;;;;;5070117;28;20517;-74
2021/06/17 14:30:11;;;;;;;8.43;4.80;;;;;;;;;;5069603;28;20912;-74
2021/06/17 14:32:37;;;;;;;8.53;4.07;;;;;;;;;;5070107;28;20875;-75
2021/06/17 14:38:07;;;;;;;4.47;4.10;;;;;;;;;;5070990;28;20531;-73
2021/06/17 14:40:33;;;;;;;4.30;3.90;;;;;;;;;;5069473;28;20426;-74
2021/06/17 14:42:59;;;;;;;4.07;3.77;;;;;;;;;;5070542;28;20414;-72
2021/06/17 14:45:25;;;;;;;4.30;3.90;;;;;;;;;;5070481;28;20414;-72
2021/06/17 14:47:52;;;;;;;5.10;4.03;;;;;;;;;;5070547;28;20943;-72
2021/06/17 14:53:21;;;;;;;5.00;4.50;;;;;;;;;;5070568;28;20424;-74
2021/06/17 14:55:47;;;;;;;4.37;3.97;;;;;;;;;;5069784;28;20451;-72
2021/06/17 14:58:13;;;;;;;6.17;4.70;;;;;;;;;;5070574;28;20896;-74
2021/06/17 15:00:39;;;;;;;4.17;3.77;;;;;;;;;;5069128;28;20529;-73
2021/06/17 15:03:05;;;;;;;4.27;3.87;;;;;;;;;;5070627;28;20563;-73
2021/06/17 15:08:34;;;;;;;5.10;4.60;;;;;;;;;;5070316;28;20414;-72
2021/06/17 15:11:04;;;;;;;5.77;4.40;;;;;;;;;;5070002;28;20414;-72
2021/06/17 15:13:30;;;;;;;4.90;3.60;;;;;;;;;;5070719;28;20762;-73
2021/06/17 15:15:56;;;;;;;5.70;3.83;;;;;;;;;;5070855;28;20454;-74
2021/06/17 15:18:24;;;;;;;8.10;4.10;;;;;;;;;;5070971;28;20520;-72
2021/06/17 15:20:50;;;;;;;4.23;3.93;;;;;;;;;;5070614;28;20502;-74
2021/06/17 15:23:16;;;;;;;6.00;4.80;;;;;;;;;;5069794;28;20479;-73
2021/06/17 15:25:43;;;;;;;5.27;4.20;;;;;;;;;;5070643;28;20410;-74
2021/06/17 15:28:09;;;;;;;4.53;3.87;;;;;;;;;;5068924;28;20429;-74
2021/06/17 15:30:35;;;;;;;6.73;4.63;;;;;;;;;;5072732;28;20411;-74
2021/06/17 15:33:01;;;;;;;5.33;3.90;;;;;;;;;;5070858;28;20418;-74
2021/06/17 15:38:30;;;;;;;4.73;3.80;;;;;;;;;;5070224;28;21055;-72
2021/06/17 15:40:56;;;;;;;3.40;3.20;;;;;;;;;;5070478;28;20402;-75
2021/06/17 15:43:22;;;;;;;4.70;4.23;;;;;;;;;;5070384;28;20418;-74
2021/06/17 15:45:48;;;;;;;6.07;4.27;;;;;;;;;;5070647;28;20413;-76
2021/06/17 15:48:14;;;;;;;4.50;4.20;;;;;;;;;;5070644;28;20422;-77
2021/06/17 15:53:44;;;;;;;4.50;4.20;;;;;;;;;;5070773;28;20425;-72
2021/06/17 15:56:10;;;;;;;4.83;4.30;;;;;;;;;;5070658;28;20414;-73
2021/06/17 15:58:36;;;;;;;5.87;4.13;;;;;;;;;;5069010;28;20476;-74
2021/06/17 16:01:02;;;;;;;4.50;4.10;;;;;;;;;;5070513;28;20406;-72
2021/06/17 16:03:28;;;;;;;4.10;3.70;;;;;;;;;;5069894;28;20564;-71
2021/06/17 16:08:59;;;;;;;6.87;4.30;;;;;;;;;;5073969;28;20451;-71
2021/06/17 16:11:25;;;;;;;4.07;3.67;;;;;;;;;;5072393;28;20429;-74
2021/06/17 16:13:52;;;;;;;7.73;3.80;;;;;;;;;;5073906;28;20472;-73
2021/06/17 16:16:18;;;;;;;4.47;4.00;;;;;;;;;;5073784;28;20414;-72
2021/06/17 16:18:44;;;;;;;10.10;4.87;;;;;;;;;;5073770;28;20523;-73
2021/06/17 16:21:10;;;;;;;4.47;4.07;;;;;;;;;;5073766;28;20420;-72
2021/06/17 16:23:36;;;;;;;6.33;3.83;;;;;;;;;;5074209;28;20815;-73
2021/06/17 16:26:03;;;;;;;5.60;4.10;;;;;;;;;;5074046;28;20827;-72
2021/06/17 16:28:29;;;;;;;6.43;5.80;;;;;;;;;;5073671;28;20911;-72
2021/06/17 16:30:56;;;;;;;4.87;4.40;;;;;;;;;;5072281;28;20430;-72